Alma, Arkansas
Current Conditions -  °F | °C
As of 2:53 AM on Wednesday 26 Nov 2014 (Local Time) from KFSM Reporting Station
Clear Clear  
Wind Chill: 27°   Ceiling: Unl
Heat Index: 33°   Visibility: 10mi
Dew Point: 28°   Wind: 7mph
Humidity: 82%   Direction: 40°NE
Pressure: 30.06"   Gusts: NA
Location:  35.48°N, 94.22°W
Report Text: KFSM 260853Z AUTO 04006KT 10SM CLR 01/M02 A3006 RMK AO2 SLP179 T00061022 57020
Loading
Personal Weather Stations






























Interactive Weather Map New forecast layout! Learn more

10-Day Weather Forecast

Advertisements
Track Severe Weather on mobile